createdAt,value
2023-01-11T00:00:27.036Z,76.70
2023-01-11T00:01:31.224Z,76.51
2023-01-11T00:02:34.359Z,76.90
2023-01-11T00:03:37.084Z,76.62
2023-01-11T00:04:38.651Z,76.19
2023-01-11T00:05:42.030Z,77.30
2023-01-11T00:06:43.953Z,76.91
2023-01-11T00:07:46.411Z,77.04
2023-01-11T00:08:47.906Z,77.43
2023-01-11T00:09:50.392Z,77.70
2023-01-11T00:10:51.918Z,77.56
2023-01-11T00:11:55.112Z,77.92
2023-01-11T00:12:57.948Z,78.10
2023-01-11T00:14:00.432Z,77.39
2023-01-11T00:15:01.954Z,77.45
2023-01-11T00:16:08.009Z,77.81
2023-01-11T00:17:09.565Z,78.30
2023-01-11T00:18:12.119Z,78.00
2023-01-11T00:19:13.765Z,78.11
2023-01-11T00:20:17.621Z,78.60
2023-01-11T00:21:19.232Z,78.48
2023-01-11T00:22:22.194Z,78.86
2023-01-11T00:23:23.777Z,79.18
2023-01-11T00:24:26.174Z,79.10
2023-01-11T00:25:27.909Z,79.58
2023-01-11T00:26:30.372Z,79.78
2023-01-11T00:27:32.024Z,79.74
2023-01-11T00:28:35.873Z,79.43
2023-01-11T00:29:37.383Z,79.87
2023-01-11T00:30:39.811Z,80.26
2023-01-11T00:31:41.324Z,80.67
2023-01-11T00:32:43.921Z,81.24
2023-01-11T00:33:46.377Z,81.61
2023-01-11T00:34:47.854Z,81.60
2023-01-11T00:35:52.407Z,81.62
2023-01-11T00:36:53.883Z,81.32
2023-01-11T00:37:56.400Z,81.98
2023-01-11T00:38:57.837Z,81.96
2023-01-11T00:40:00.275Z,82.88
2023-01-11T00:41:21.875Z,83.07
2023-01-11T00:42:42.157Z,83.32
2023-01-11T00:44:03.867Z,83.33
2023-01-11T00:45:25.244Z,83.82
2023-01-11T00:46:56.490Z,84.27
2023-01-11T00:48:00.421Z,84.76
2023-01-11T00:49:01.936Z,84.74
2023-01-11T00:50:04.701Z,84.55
2023-01-11T00:51:06.188Z,85.48
2023-01-11T00:52:09.962Z,85.57
2023-01-11T00:53:11.671Z,85.79
2023-01-11T00:54:14.338Z,85.87
2023-01-11T00:55:15.921Z,85.16
2023-01-11T00:56:18.361Z,85.62
2023-01-11T00:57:20.137Z,85.52
2023-01-11T00:58:22.753Z,85.25
2023-01-11T00:59:25.596Z,85.49
2023-01-11T01:00:29.566Z,85.75
2023-01-11T01:01:31.657Z,86.18
2023-01-11T01:02:34.408Z,87.19
2023-01-11T01:03:36.846Z,87.12
2023-01-11T01:04:39.348Z,86.70
2023-01-11T01:05:41.811Z,86.79
2023-01-11T01:06:43.417Z,86.60
2023-01-11T01:07:46.325Z,86.65
2023-01-11T01:08:47.821Z,86.67
2023-01-11T01:09:50.275Z,86.21
2023-01-11T01:10:52.234Z,85.93
2023-01-11T01:11:54.719Z,85.38
2023-01-11T01:13:14.869Z,85.55
2023-01-11T01:14:34.405Z,84.71
2023-01-11T01:15:38.204Z,85.34
2023-01-11T01:16:40.021Z,85.51
2023-01-11T01:17:42.448Z,85.46
2023-01-11T01:18:44.906Z,84.54
2023-01-11T01:19:46.685Z,84.49
2023-01-11T01:20:51.098Z,85.07
2023-01-11T01:21:52.573Z,85.02
2023-01-11T01:22:55.037Z,85.00
2023-01-11T01:23:57.221Z,85.53
2023-01-11T01:24:59.670Z,85.12
2023-01-11T01:26:02.967Z,84.93
2023-01-11T01:27:05.421Z,84.92
2023-01-11T01:28:06.933Z,85.75
2023-01-11T01:29:09.756Z,85.62
2023-01-11T01:30:11.796Z,85.73
2023-01-11T01:31:15.546Z,85.16
2023-01-11T01:32:17.079Z,84.08
2023-01-11T01:33:19.494Z,84.37
2023-01-11T01:34:20.951Z,84.39
2023-01-11T01:35:23.392Z,83.85
2023-01-11T01:36:25.039Z,83.84
2023-01-11T01:37:27.791Z,83.68
2023-01-11T01:38:29.338Z,84.61
2023-01-11T01:39:31.884Z,84.94
2023-01-11T01:40:33.398Z,84.80
2023-01-11T01:41:36.524Z,84.79
2023-01-11T01:42:38.048Z,84.96
2023-01-11T01:43:50.289Z,84.11
2023-01-11T01:45:00.905Z,83.79
2023-01-11T01:46:03.408Z,84.28
2023-01-11T01:47:06.248Z,85.12
2023-01-11T01:48:12.293Z,84.34
2023-01-11T01:49:16.251Z,84.38
2023-01-11T01:50:22.415Z,84.26
2023-01-11T01:51:28.474Z,83.49
2023-01-11T01:52:33.045Z,82.92
2023-01-11T01:53:37.379Z,82.95
2023-01-11T01:54:43.536Z,82.46
2023-01-11T01:55:49.877Z,82.10
2023-01-11T01:56:54.669Z,82.49
2023-01-11T01:57:59.203Z,83.40
2023-01-11T01:59:04.563Z,83.75
2023-01-11T02:00:09.722Z,83.25
2023-01-11T02:01:31.955Z,83.94
2023-01-11T02:02:37.064Z,83.42
2023-01-11T02:03:38.672Z,83.20
2023-01-11T02:04:43.598Z,82.92
2023-01-11T02:05:45.865Z,82.65
2023-01-11T02:06:49.043Z,82.47
2023-01-11T02:07:54.760Z,82.00
2023-01-11T02:09:02.413Z,81.94
2023-01-11T02:10:07.922Z,81.78
2023-01-11T02:11:27.085Z,81.53
2023-01-11T02:12:33.705Z,81.84
2023-01-11T02:13:45.948Z,82.08
2023-01-11T02:14:50.018Z,82.81
2023-01-11T02:16:07.548Z,83.27
2023-01-11T02:17:10.491Z,83.81
2023-01-11T02:18:14.294Z,83.40
2023-01-11T02:19:30.137Z,83.76
2023-01-11T02:20:53.792Z,83.86
2023-01-11T02:22:17.072Z,83.90
2023-01-11T02:23:58.011Z,83.87
2023-01-11T02:25:31.699Z,84.11
2023-01-11T02:26:59.045Z,83.70
2023-01-11T02:28:11.618Z,84.24
2023-01-11T02:29:26.678Z,83.89
2023-01-11T02:30:34.352Z,83.88
2023-01-11T02:31:44.869Z,84.34
2023-01-11T02:32:58.361Z,84.07
2023-01-11T02:34:11.717Z,83.08
2023-01-11T02:35:20.370Z,83.14
2023-01-11T02:36:34.305Z,83.29
2023-01-11T02:37:47.241Z,82.95
2023-01-11T02:38:58.003Z,83.20
2023-01-11T02:40:07.067Z,83.35
2023-01-11T02:41:18.793Z,83.11
2023-01-11T02:42:45.208Z,82.99
2023-01-11T02:44:14.069Z,83.85
2023-01-11T02:45:26.888Z,83.78
2023-01-11T02:46:33.452Z,83.42
2023-01-11T02:47:44.951Z,83.03
2023-01-11T02:48:55.594Z,83.24
2023-01-11T02:50:04.217Z,83.05
2023-01-11T02:51:12.181Z,83.86
2023-01-11T02:52:21.842Z,83.80
2023-01-11T02:53:28.512Z,82.97
2023-01-11T02:54:32.720Z,82.55
2023-01-11T02:55:43.238Z,82.11
2023-01-11T02:56:48.526Z,82.53
2023-01-11T02:57:53.034Z,82.16
2023-01-11T02:58:58.774Z,81.55
2023-01-11T03:00:02.167Z,81.58
2023-01-11T03:01:05.223Z,82.07
2023-01-11T03:02:06.740Z,81.95
2023-01-11T03:03:14.492Z,82.33
2023-01-11T03:04:23.252Z,82.58
2023-01-11T03:05:26.015Z,82.26
2023-01-11T03:06:31.994Z,81.87
2023-01-11T03:07:50.903Z,82.19
2023-01-11T03:09:15.856Z,81.97
2023-01-11T03:10:29.624Z,82.14
2023-01-11T03:12:03.653Z,81.68
2023-01-11T03:13:17.166Z,81.28
2023-01-11T03:14:28.212Z,81.41
2023-01-11T03:15:46.418Z,81.71
2023-01-11T03:16:55.483Z,82.53
2023-01-11T03:18:08.389Z,81.98
2023-01-11T03:19:19.781Z,81.40
2023-01-11T03:20:27.236Z,81.26
2023-01-11T03:21:42.811Z,80.28
2023-01-11T03:22:58.204Z,80.51
2023-01-11T03:24:10.401Z,81.50
2023-01-11T03:25:20.237Z,81.33
2023-01-11T03:26:31.267Z,81.14
2023-01-11T03:27:39.809Z,81.30
2023-01-11T03:28:51.439Z,80.98
2023-01-11T03:30:04.457Z,81.95
2023-01-11T03:31:13.446Z,82.20
2023-01-11T03:32:23.396Z,81.84
2023-01-11T03:33:32.006Z,82.26
2023-01-11T03:34:40.234Z,82.64
2023-01-11T03:35:48.635Z,82.27
2023-01-11T03:36:57.576Z,81.93
2023-01-11T03:38:03.499Z,82.26
2023-01-11T03:39:11.176Z,82.09
2023-01-11T03:40:19.005Z,82.21
2023-01-11T03:41:25.431Z,82.44
2023-01-11T03:42:29.900Z,82.33
2023-01-11T03:43:34.281Z,83.17
2023-01-11T03:44:43.655Z,83.64
2023-01-11T03:45:51.016Z,82.71
2023-01-11T03:46:57.392Z,82.34
2023-01-11T03:48:03.091Z,82.16
2023-01-11T03:49:09.783Z,82.72
2023-01-11T03:50:13.537Z,82.77
2023-01-11T03:51:21.012Z,82.75
2023-01-11T03:52:28.757Z,82.73
2023-01-11T03:53:36.280Z,83.23
2023-01-11T03:54:39.967Z,84.37
2023-01-11T03:55:47.636Z,84.12
2023-01-11T03:56:56.251Z,84.09
2023-01-11T03:57:59.153Z,84.92
2023-01-11T03:59:01.593Z,85.91
2023-01-11T04:00:05.932Z,85.76
2023-01-11T04:01:08.954Z,84.97
2023-01-11T04:02:16.843Z,84.59
2023-01-11T04:03:18.347Z,84.62
2023-01-11T04:04:21.066Z,84.51
2023-01-11T04:05:22.791Z,84.56
2023-01-11T04:06:25.854Z,85.83
2023-01-11T04:07:27.391Z,85.35
2023-01-11T04:08:31.072Z,84.88
2023-01-11T04:09:32.715Z,83.87
2023-01-11T04:10:35.144Z,83.48
2023-01-11T04:11:36.635Z,83.20
2023-01-11T04:12:39.080Z,83.46
2023-01-11T04:13:40.547Z,83.86
2023-01-11T04:14:43.057Z,83.80
2023-01-11T04:15:44.538Z,84.11
2023-01-11T04:16:48.408Z,84.21
2023-01-11T04:17:49.951Z,84.41
2023-01-11T04:18:52.370Z,85.06
2023-01-11T04:19:53.856Z,85.04
2023-01-11T04:20:56.277Z,85.54
2023-01-11T04:21:57.777Z,85.71
2023-01-11T04:23:00.344Z,85.99
2023-01-11T04:24:01.907Z,85.39
2023-01-11T04:25:05.041Z,85.28
2023-01-11T04:26:07.006Z,84.93
2023-01-11T04:27:09.420Z,85.63
2023-01-11T04:28:11.127Z,85.14
2023-01-11T04:29:13.877Z,85.15
2023-01-11T04:30:15.881Z,84.53
2023-01-11T04:31:18.506Z,84.74
2023-01-11T04:32:21.413Z,85.42
2023-01-11T04:33:23.860Z,85.73
2023-01-11T04:34:25.433Z,85.36
2023-01-11T04:35:28.006Z,85.75
2023-01-11T04:36:31.470Z,85.36
2023-01-11T04:37:33.051Z,85.19
2023-01-11T04:38:35.858Z,85.32
2023-01-11T04:39:37.446Z,85.38
2023-01-11T04:40:39.891Z,85.46
2023-01-11T04:42:08.693Z,84.80
2023-01-11T04:43:10.195Z,84.68
2023-01-11T04:44:12.736Z,85.18
2023-01-11T04:45:14.476Z,85.95
2023-01-11T04:46:16.935Z,85.59
2023-01-11T04:47:20.097Z,87.09
2023-01-11T04:48:23.870Z,86.55
2023-01-11T04:49:25.367Z,86.41
2023-01-11T04:50:28.710Z,86.70
2023-01-11T04:51:30.245Z,86.50
2023-01-11T04:52:32.714Z,87.24
2023-01-11T04:53:35.083Z,87.63
2023-01-11T04:54:37.501Z,87.42
2023-01-11T04:55:38.973Z,87.56
2023-01-11T04:56:41.409Z,87.20
2023-01-11T04:57:43.550Z,87.02
2023-01-11T04:58:46.875Z,86.67
2023-01-11T04:59:49.257Z,86.82
2023-01-11T05:00:51.779Z,86.78
2023-01-11T05:01:53.361Z,86.90
2023-01-11T05:02:55.823Z,86.81
2023-01-11T05:03:58.947Z,87.74
2023-01-11T05:05:01.474Z,88.66
2023-01-11T05:06:04.816Z,88.49
2023-01-11T05:07:07.738Z,87.75
2023-01-11T05:08:09.247Z,88.07
2023-01-11T05:09:14.011Z,88.41
2023-01-11T05:10:16.023Z,88.63
2023-01-11T05:11:18.884Z,88.31
2023-01-11T05:12:20.365Z,87.83
2023-01-11T05:13:41.430Z,87.12
2023-01-11T05:14:43.961Z,86.69
2023-01-11T05:15:45.529Z,85.97
2023-01-11T05:16:48.053Z,85.59
2023-01-11T05:17:49.591Z,85.92
2023-01-11T05:18:54.023Z,87.30
2023-01-11T05:19:57.012Z,86.63
2023-01-11T05:20:59.473Z,85.62
2023-01-11T05:22:01.055Z,85.47
2023-01-11T05:23:03.541Z,85.74
2023-01-11T05:24:07.237Z,85.61
2023-01-11T05:25:10.145Z,85.22
2023-01-11T05:26:14.608Z,84.75
2023-01-11T05:27:17.051Z,84.11
2023-01-11T05:28:19.977Z,85.39
2023-01-11T05:29:22.707Z,86.04
2023-01-11T05:30:24.302Z,85.65
2023-01-11T05:31:27.414Z,85.99
2023-01-11T05:32:29.483Z,86.50
2023-01-11T05:33:32.108Z,86.35
2023-01-11T05:34:34.808Z,86.50
2023-01-11T05:35:37.622Z,86.33
2023-01-11T05:36:40.291Z,86.57
2023-01-11T05:37:41.809Z,86.76
2023-01-11T05:38:46.616Z,87.07
2023-01-11T05:39:48.162Z,88.28
2023-01-11T05:40:55.160Z,88.90
2023-01-11T05:41:56.705Z,88.78
2023-01-11T05:42:59.148Z,88.48
2023-01-11T05:44:19.667Z,87.69
2023-01-11T05:45:30.046Z,87.04
2023-01-11T05:46:33.526Z,86.95
2023-01-11T05:47:35.010Z,86.69
2023-01-11T05:48:37.466Z,87.21
2023-01-11T05:49:39.892Z,87.27
2023-01-11T05:50:43.796Z,87.36
2023-01-11T05:51:45.358Z,87.70
2023-01-11T05:52:47.853Z,87.59
2023-01-11T05:53:49.413Z,88.66
2023-01-11T05:54:51.860Z,88.35
2023-01-11T05:55:53.797Z,88.32
2023-01-11T05:56:57.622Z,88.25
2023-01-11T05:57:59.254Z,89.93
2023-01-11T05:59:03.840Z,89.34
2023-01-11T06:00:06.465Z,89.22
2023-01-11T06:01:09.244Z,88.95
2023-01-11T06:02:15.458Z,89.46
2023-01-11T06:03:17.222Z,88.85
2023-01-11T06:04:19.731Z,88.82
2023-01-11T06:05:21.254Z,88.37
2023-01-11T06:06:25.098Z,89.53
2023-01-11T06:07:27.624Z,88.73
2023-01-11T06:08:29.127Z,88.57
2023-01-11T06:09:31.587Z,88.82
2023-01-11T06:10:33.968Z,88.73
2023-01-11T06:11:36.587Z,88.50
2023-01-11T06:12:38.157Z,88.99
2023-01-11T06:13:40.673Z,89.68
2023-01-11T06:14:42.178Z,89.78
2023-01-11T06:15:44.992Z,89.47
2023-01-11T06:16:47.511Z,89.12
2023-01-11T06:17:49.049Z,90.23
2023-01-11T06:18:53.492Z,89.72
2023-01-11T06:19:55.020Z,89.24
2023-01-11T06:20:58.136Z,88.82
2023-01-11T06:22:04.905Z,88.59
2023-01-11T06:23:06.493Z,88.78
2023-01-11T06:24:12.267Z,88.73
2023-01-11T06:25:14.359Z,87.95
2023-01-11T06:26:22.044Z,88.91
2023-01-11T06:27:23.593Z,88.25
2023-01-11T06:28:26.065Z,88.48
2023-01-11T06:29:27.624Z,87.48
2023-01-11T06:30:30.331Z,87.67
2023-01-11T06:31:31.871Z,87.75
2023-01-11T06:32:34.366Z,88.32
2023-01-11T06:33:36.451Z,89.29
2023-01-11T06:34:38.970Z,89.20
2023-01-11T06:35:41.837Z,89.74
2023-01-11T06:36:44.251Z,90.13
2023-01-11T06:37:47.662Z,89.82
2023-01-11T06:38:50.140Z,90.21
2023-01-11T06:39:51.620Z,90.25
2023-01-11T06:40:55.464Z,89.62
2023-01-11T06:41:56.973Z,89.22
2023-01-11T06:42:59.635Z,88.66
2023-01-11T06:44:01.128Z,88.75
2023-01-11T06:45:03.575Z,88.19
2023-01-11T06:46:07.984Z,87.81
2023-01-11T06:47:10.476Z,88.77
2023-01-11T06:48:12.013Z,89.03
2023-01-11T06:49:14.709Z,89.04
2023-01-11T06:50:16.768Z,89.38
2023-01-11T06:51:19.241Z,89.87
2023-01-11T06:52:20.804Z,90.19
2023-01-11T06:53:28.416Z,89.91
2023-01-11T06:54:31.459Z,90.14
2023-01-11T06:55:32.976Z,90.95
2023-01-11T06:56:35.762Z,90.45
2023-01-11T06:57:37.337Z,90.14
2023-01-11T06:58:39.826Z,89.51
2023-01-11T06:59:43.246Z,89.97
2023-01-11T07:00:46.105Z,89.92
2023-01-11T07:01:47.797Z,89.48
2023-01-11T07:02:50.696Z,89.54
2023-01-11T07:03:52.206Z,89.63
2023-01-11T07:04:54.840Z,89.84
2023-01-11T07:05:58.475Z,90.32
2023-01-11T07:06:59.942Z,90.87
2023-01-11T07:08:02.716Z,91.21
2023-01-11T07:09:06.545Z,90.79
2023-01-11T07:10:12.115Z,90.37
2023-01-11T07:11:14.548Z,89.79
2023-01-11T07:12:16.073Z,89.95
2023-01-11T07:13:20.523Z,90.22
2023-01-11T07:14:22.129Z,89.96
2023-01-11T07:15:24.638Z,89.62
2023-01-11T07:16:27.125Z,89.16
2023-01-11T07:17:28.803Z,89.92
2023-01-11T07:18:31.795Z,89.98
2023-01-11T07:19:33.310Z,90.20
2023-01-11T07:20:38.398Z,90.67
2023-01-11T07:21:39.878Z,90.63
2023-01-11T07:22:42.625Z,90.02
2023-01-11T07:23:45.997Z,90.66
2023-01-11T07:24:50.080Z,90.01
2023-01-11T07:25:51.802Z,90.14
2023-01-11T07:26:56.280Z,89.95
2023-01-11T07:27:58.893Z,90.48
2023-01-11T07:29:01.382Z,90.91
2023-01-11T07:30:03.069Z,90.92
2023-01-11T07:31:05.733Z,90.79
2023-01-11T07:32:10.711Z,91.05
2023-01-11T07:33:13.405Z,90.97
2023-01-11T07:34:15.479Z,90.61
2023-01-11T07:35:19.039Z,90.54
2023-01-11T07:36:21.548Z,90.17
2023-01-11T07:37:28.605Z,90.61
2023-01-11T07:38:31.934Z,90.28
2023-01-11T07:39:43.313Z,90.10
2023-01-11T07:40:48.185Z,91.48
2023-01-11T07:42:08.659Z,91.13
2023-01-11T07:43:15.296Z,91.29
2023-01-11T07:44:17.639Z,90.98
2023-01-11T07:45:20.520Z,91.36
2023-01-11T07:46:23.287Z,90.74
2023-01-11T07:47:24.851Z,91.12
2023-01-11T07:48:27.829Z,90.70
2023-01-11T07:49:29.662Z,90.98
2023-01-11T07:50:32.605Z,90.33
2023-01-11T07:51:35.076Z,90.16
2023-01-11T07:52:38.667Z,90.21
2023-01-11T07:53:41.195Z,89.53
2023-01-11T07:54:42.738Z,89.67
2023-01-11T07:55:45.525Z,89.51
2023-01-11T07:56:49.341Z,89.43
2023-01-11T07:57:51.280Z,89.12
2023-01-11T07:58:53.711Z,88.91
2023-01-11T07:59:55.244Z,89.65
2023-01-11T08:01:00.227Z,89.09
2023-01-11T08:02:01.723Z,88.42
2023-01-11T08:03:04.711Z,88.84
2023-01-11T08:04:08.432Z,88.89
2023-01-11T08:05:10.281Z,89.08
2023-01-11T08:06:14.460Z,89.17
2023-01-11T08:07:18.095Z,89.61
2023-01-11T08:08:21.037Z,89.09
2023-01-11T08:09:22.548Z,88.67
2023-01-11T08:10:25.656Z,88.72
2023-01-11T08:12:00.687Z,88.72
2023-01-11T08:13:22.389Z,88.30
2023-01-11T08:14:41.963Z,88.46
2023-01-11T08:15:46.752Z,88.27
2023-01-11T08:16:48.319Z,88.34
2023-01-11T08:17:51.303Z,88.17
2023-01-11T08:18:52.910Z,87.90
2023-01-11T08:19:56.190Z,87.43
2023-01-11T08:20:58.762Z,87.45
2023-01-11T08:22:00.325Z,87.94
2023-01-11T08:23:04.893Z,87.93
2023-01-11T08:24:06.961Z,87.74
2023-01-11T08:25:11.176Z,87.80
2023-01-11T08:26:17.091Z,88.51
2023-01-11T08:27:19.529Z,88.62
2023-01-11T08:28:23.318Z,88.41
2023-01-11T08:29:25.645Z,88.21
2023-01-11T08:30:28.127Z,88.06
2023-01-11T08:31:31.051Z,87.66
2023-01-11T08:32:32.615Z,87.80
2023-01-11T08:33:35.039Z,87.38
2023-01-11T08:34:36.793Z,87.24
2023-01-11T08:35:40.396Z,87.46
2023-01-11T08:36:41.952Z,87.37
2023-01-11T08:37:44.562Z,87.28
2023-01-11T08:38:46.031Z,87.13
2023-01-11T08:39:50.674Z,87.10
2023-01-11T08:40:53.110Z,87.17
2023-01-11T08:41:54.734Z,87.58
2023-01-11T08:42:57.686Z,87.01
2023-01-11T08:44:00.669Z,86.55
2023-01-11T08:45:03.288Z,86.04
2023-01-11T08:46:05.091Z,86.31
2023-01-11T08:47:08.009Z,87.38
2023-01-11T08:48:12.173Z,88.08
2023-01-11T08:49:14.742Z,88.45
2023-01-11T08:50:18.896Z,88.00
2023-01-11T08:51:23.012Z,87.65
2023-01-11T08:52:37.512Z,87.48
2023-01-11T08:53:39.159Z,87.84
2023-01-11T08:54:42.590Z,88.01
2023-01-11T08:55:49.151Z,88.42
2023-01-11T08:56:50.741Z,88.07
2023-01-11T08:57:53.270Z,87.95
2023-01-11T08:58:56.057Z,88.25
2023-01-11T09:00:00.192Z,88.91
2023-01-11T09:01:09.009Z,88.68
2023-01-11T09:02:13.511Z,88.13
2023-01-11T09:03:15.239Z,88.34
2023-01-11T09:04:24.581Z,88.64
2023-01-11T09:05:27.496Z,88.53
2023-01-11T09:06:29.186Z,88.71
2023-01-11T09:07:31.782Z,87.88
2023-01-11T09:08:33.346Z,87.68
2023-01-11T09:09:36.054Z,87.72
2023-01-11T09:10:38.063Z,87.80
2023-01-11T09:11:56.937Z,87.71
2023-01-11T09:13:00.633Z,88.05
2023-01-11T09:14:02.144Z,88.33
2023-01-11T09:15:07.090Z,88.18
2023-01-11T09:16:08.618Z,88.15
2023-01-11T09:17:11.158Z,87.22
2023-01-11T09:18:12.711Z,87.00
2023-01-11T09:19:15.448Z,86.66
2023-01-11T09:20:19.444Z,86.86
2023-01-11T09:21:22.501Z,86.89
2023-01-11T09:22:25.105Z,87.15
2023-01-11T09:23:28.661Z,86.84
2023-01-11T09:24:32.075Z,86.15
2023-01-11T09:25:38.176Z,85.40
2023-01-11T09:26:41.771Z,85.79
2023-01-11T09:27:45.189Z,85.58
2023-01-11T09:28:46.708Z,84.97
2023-01-11T09:29:49.246Z,84.65
2023-01-11T09:30:53.076Z,84.59
2023-01-11T09:31:55.559Z,84.52
2023-01-11T09:32:58.227Z,84.63
2023-01-11T09:33:59.753Z,85.49
2023-01-11T09:35:03.618Z,85.46
2023-01-11T09:36:06.124Z,84.77
2023-01-11T09:37:08.632Z,85.71
2023-01-11T09:38:11.151Z,85.28
2023-01-11T09:39:16.989Z,84.87
2023-01-11T09:40:22.695Z,85.15
2023-01-11T09:41:46.497Z,85.12
2023-01-11T09:42:52.710Z,85.08
2023-01-11T09:44:02.232Z,84.83
2023-01-11T09:45:14.233Z,84.66
2023-01-11T09:46:19.873Z,84.57
2023-01-11T09:47:33.723Z,85.10
2023-01-11T09:48:43.775Z,84.74
2023-01-11T09:49:54.530Z,84.60
2023-01-11T09:50:57.736Z,84.28
2023-01-11T09:52:11.409Z,85.03
2023-01-11T09:53:19.560Z,85.88
2023-01-11T09:54:27.470Z,86.20
2023-01-11T09:55:34.679Z,85.52
2023-01-11T09:56:44.097Z,84.82
2023-01-11T09:58:03.920Z,85.17
2023-01-11T09:59:17.739Z,85.25
2023-01-11T10:00:28.854Z,84.87
2023-01-11T10:01:39.585Z,84.31
2023-01-11T10:02:49.339Z,83.71
2023-01-11T10:04:12.896Z,83.70
2023-01-11T10:05:51.431Z,83.86
2023-01-11T10:07:12.915Z,84.22
2023-01-11T10:18:28.494Z,84.82
2023-01-11T10:18:37.854Z,84.10
2023-01-11T10:18:40.395Z,85.04
2023-01-11T10:19:37.730Z,83.39
2023-01-11T10:20:47.503Z,83.08
2023-01-11T10:21:55.649Z,83.07
2023-01-11T10:23:04.963Z,83.04
2023-01-11T10:24:14.771Z,82.88
2023-01-11T10:25:24.798Z,82.60
2023-01-11T10:26:36.004Z,82.88
2023-01-11T10:27:40.484Z,83.09
2023-01-11T10:29:07.365Z,83.47
2023-01-11T10:30:33.513Z,83.28
2023-01-11T10:31:49.271Z,83.67
2023-01-11T10:33:10.136Z,84.09
2023-01-11T10:34:38.644Z,83.93
2023-01-11T10:36:12.963Z,84.12
2023-01-11T10:37:44.714Z,83.73
2023-01-11T10:39:14.485Z,83.81
2023-01-11T10:40:42.911Z,85.29
2023-01-11T10:42:04.134Z,86.69
2023-01-11T10:43:20.684Z,87.88
2023-01-11T10:44:38.450Z,87.51
2023-01-11T10:45:47.942Z,87.13
2023-01-11T10:47:00.113Z,87.96
2023-01-11T10:48:17.692Z,88.25
2023-01-11T10:49:38.846Z,88.68
2023-01-11T10:50:57.383Z,88.66
2023-01-11T10:52:07.965Z,88.65
2023-01-11T10:53:21.232Z,88.96
2023-01-11T10:54:36.063Z,89.69
2023-01-11T10:55:51.671Z,89.90
2023-01-11T10:57:09.330Z,89.80
2023-01-11T10:58:25.197Z,89.97
2023-01-11T10:59:50.376Z,89.97
2023-01-11T11:01:09.115Z,89.61
2023-01-11T11:02:30.805Z,90.43
2023-01-11T11:04:09.883Z,90.67
2023-01-11T11:05:29.253Z,91.95
2023-01-11T11:06:40.718Z,91.45
2023-01-11T11:07:55.210Z,91.29
2023-01-11T11:09:06.692Z,90.32
2023-01-11T11:10:21.852Z,89.65
2023-01-11T11:11:32.979Z,89.25
2023-01-11T11:12:38.936Z,89.38
2023-01-11T11:13:50.756Z,88.86
2023-01-11T11:15:04.287Z,89.49
2023-01-11T11:16:19.809Z,90.04
2023-01-11T11:17:26.702Z,89.88
2023-01-11T11:18:29.347Z,89.34
2023-01-11T11:19:33.193Z,89.23
2023-01-11T11:20:35.798Z,89.87
2023-01-11T11:21:40.325Z,89.57
2023-01-11T11:22:44.925Z,88.79
2023-01-11T11:23:54.418Z,88.12
2023-01-11T11:25:02.634Z,88.04
2023-01-11T11:26:06.737Z,87.85
2023-01-11T11:27:19.083Z,87.90
2023-01-11T11:28:28.937Z,87.91
2023-01-11T11:29:31.537Z,88.79
2023-01-11T11:30:38.161Z,89.98
2023-01-11T11:31:43.821Z,89.69
2023-01-11T11:32:55.397Z,89.11
2023-01-11T11:33:58.553Z,89.71
2023-01-11T11:35:02.790Z,89.37
2023-01-11T11:36:08.890Z,89.93
2023-01-11T11:37:21.609Z,90.20
2023-01-11T11:38:26.228Z,89.59
2023-01-11T11:39:30.240Z,90.38
2023-01-11T11:40:35.546Z,92.09
2023-01-11T11:41:48.043Z,91.36
2023-01-11T11:42:50.605Z,91.26
2023-01-11T11:43:53.383Z,91.51
2023-01-11T11:45:14.700Z,90.98
2023-01-11T11:46:25.275Z,91.35
2023-01-11T11:47:26.887Z,90.63
2023-01-11T11:48:31.432Z,91.04
2023-01-11T11:49:34.173Z,91.39
2023-01-11T11:50:46.149Z,92.18
2023-01-11T11:51:48.445Z,92.52
2023-01-11T11:52:55.521Z,92.50
2023-01-11T11:53:58.405Z,91.62
2023-01-11T11:55:00.037Z,92.14
2023-01-11T11:56:08.779Z,92.00
2023-01-11T11:57:18.311Z,92.86
2023-01-11T11:58:23.252Z,93.93
2023-01-11T11:59:30.020Z,94.20
2023-01-11T12:00:40.066Z,93.96
2023-01-11T12:01:47.187Z,93.31
2023-01-11T12:02:52.003Z,94.10
2023-01-11T12:03:57.502Z,95.26
2023-01-11T12:05:05.341Z,94.80
2023-01-11T12:06:09.322Z,93.98
2023-01-11T12:07:17.715Z,95.19
2023-01-11T12:08:21.611Z,96.40
2023-01-11T12:09:30.872Z,96.49
2023-01-11T12:10:33.733Z,95.59
2023-01-11T12:11:38.699Z,94.83
2023-01-11T12:12:51.920Z,94.97
2023-01-11T12:14:01.848Z,95.48
2023-01-11T12:15:19.278Z,95.47
2023-01-11T12:16:23.799Z,95.68
2023-01-11T12:17:26.863Z,95.36
2023-01-11T12:18:33.358Z,94.17
2023-01-11T12:19:41.267Z,94.20
2023-01-11T12:20:44.778Z,93.81
2023-01-11T12:21:48.613Z,93.95
2023-01-11T12:22:53.270Z,94.14
2023-01-11T12:24:10.914Z,94.57
2023-01-11T12:25:22.556Z,94.63
2023-01-11T12:26:29.132Z,94.41
2023-01-11T12:27:42.686Z,94.82
2023-01-11T12:29:23.955Z,93.86
2023-01-11T12:30:30.256Z,96.29
2023-01-11T12:31:40.289Z,96.07
2023-01-11T12:33:08.698Z,95.74
2023-01-11T12:34:28.588Z,94.82
2023-01-11T12:35:36.904Z,95.22
2023-01-11T12:36:49.087Z,95.15
2023-01-11T12:38:09.592Z,93.76
2023-01-11T12:39:20.628Z,93.52
2023-01-11T12:40:31.482Z,94.31
2023-01-11T12:41:58.723Z,93.74
2023-01-11T12:43:16.467Z,93.76
2023-01-11T12:44:31.349Z,93.30
2023-01-11T12:45:40.966Z,93.09
2023-01-11T12:46:58.880Z,94.37
2023-01-11T12:48:18.986Z,96.12
2023-01-11T12:49:37.863Z,95.47
2023-01-11T12:50:53.686Z,94.32
2023-01-11T12:52:32.036Z,94.66
2023-01-11T12:53:47.836Z,95.38
2023-01-11T12:55:05.261Z,96.31
2023-01-11T12:56:27.328Z,95.29
2023-01-11T12:57:37.816Z,95.05
2023-01-11T12:58:46.596Z,95.31
2023-01-11T13:00:09.481Z,94.78
2023-01-11T13:01:31.335Z,93.55
2023-01-11T13:02:53.877Z,94.83
2023-01-11T13:04:25.073Z,94.06
2023-01-11T13:05:28.893Z,93.56
2023-01-11T13:06:36.405Z,94.67
2023-01-11T13:07:50.699Z,94.93
2023-01-11T13:09:00.854Z,94.68
2023-01-11T13:10:15.448Z,93.71
2023-01-11T13:11:36.648Z,93.56
2023-01-11T13:12:47.027Z,93.27
2023-01-11T13:13:57.375Z,93.06
2023-01-11T13:15:25.126Z,95.71
2023-01-11T13:16:35.724Z,96.46
2023-01-11T13:17:46.017Z,96.56
2023-01-11T13:18:59.043Z,98.34
2023-01-11T13:20:15.285Z,97.80
2023-01-11T13:21:30.020Z,97.44
2023-01-11T13:22:37.513Z,97.10
2023-01-11T13:23:47.406Z,97.17
2023-01-11T13:24:52.368Z,98.10
2023-01-11T13:25:55.472Z,99.26
2023-01-11T13:27:01.926Z,98.88
2023-01-11T13:28:24.388Z,99.14
2023-01-11T13:29:31.055Z,99.32
2023-01-11T13:30:34.127Z,99.01
2023-01-11T13:31:37.880Z,98.87
2023-01-11T13:32:43.178Z,99.73
2023-01-11T13:33:54.703Z,99.45
2023-01-11T13:35:04.638Z,98.13
2023-01-11T13:36:22.624Z,97.52
2023-01-11T13:37:30.577Z,98.18
2023-01-11T13:38:44.550Z,98.44
2023-01-11T13:39:53.106Z,98.54
2023-01-11T13:41:00.868Z,98.17
2023-01-11T13:42:10.703Z,98.95
2023-01-11T13:43:19.943Z,99.33
2023-01-11T13:44:25.945Z,98.72
2023-01-11T13:45:33.279Z,100.00
2023-01-11T13:47:01.156Z,99.77
2023-01-11T13:48:15.129Z,99.36
2023-01-11T13:49:37.276Z,98.52
2023-01-11T13:50:46.584Z,100.00
2023-01-11T13:51:54.155Z,100.00
2023-01-11T13:53:06.748Z,100.00
2023-01-11T13:54:14.959Z,100.00
2023-01-11T13:55:26.867Z,100.00
2023-01-11T13:56:34.190Z,100.00
2023-01-11T13:57:44.605Z,99.76
2023-01-11T13:58:52.597Z,99.04
2023-01-11T14:00:04.872Z,99.51
2023-01-11T14:01:12.040Z,99.16
2023-01-11T14:02:21.950Z,99.85
2023-01-11T14:03:31.252Z,99.75
2023-01-11T14:04:48.414Z,100.00
2023-01-11T14:06:03.961Z,100.00
2023-01-11T14:07:18.753Z,100.00
2023-01-11T14:08:36.586Z,100.00
2023-01-11T14:10:02.931Z,100.00
2023-01-11T14:11:17.400Z,100.00
2023-01-11T14:12:33.104Z,100.00
2023-01-11T14:14:06.328Z,100.00
2023-01-11T14:15:22.555Z,99.37
2023-01-11T14:16:34.372Z,97.89
2023-01-11T14:17:56.424Z,99.33
2023-01-11T14:19:06.749Z,99.50
2023-01-11T14:20:21.388Z,99.19
2023-01-11T14:21:31.298Z,99.71
2023-01-11T14:22:42.244Z,99.19
2023-01-11T14:23:49.951Z,99.55
2023-01-11T14:24:58.266Z,99.36
2023-01-11T14:26:26.542Z,98.55
2023-01-11T14:27:49.222Z,99.25
2023-01-11T14:29:04.237Z,99.47
2023-01-11T14:30:36.054Z,99.67
2023-01-11T14:31:52.607Z,100.00
2023-01-11T14:33:26.309Z,100.00
2023-01-11T14:34:48.592Z,100.00